createdAt,value
2017-11-29T00:00:06.944Z,4.30
2017-11-29T00:02:35.768Z,4.30
2017-11-29T00:05:03.792Z,4.30
2017-11-29T00:07:31.849Z,4.30
2017-11-29T00:09:59.864Z,4.40
2017-11-29T00:12:27.924Z,4.40
2017-11-29T00:14:55.956Z,4.40
2017-11-29T00:17:24.757Z,4.40
2017-11-29T00:19:53.561Z,4.40
2017-11-29T00:22:22.372Z,4.30
2017-11-29T00:24:51.170Z,4.30
2017-11-29T00:27:19.952Z,4.30
2017-11-29T00:29:48.060Z,4.30
2017-11-29T00:32:17.055Z,4.30
2017-11-29T00:34:45.840Z,4.20
2017-11-29T00:37:13.907Z,4.20
2017-11-29T00:39:41.925Z,4.30
2017-11-29T00:42:10.719Z,4.30
2017-11-29T00:44:39.500Z,4.20
2017-11-29T00:47:09.068Z,4.20
2017-11-29T00:49:37.084Z,4.30
2017-11-29T00:52:05.121Z,4.20
2017-11-29T00:54:33.915Z,4.30
2017-11-29T00:57:02.704Z,4.30
2017-11-29T00:59:31.518Z,4.30
2017-11-29T01:02:00.308Z,4.40
2017-11-29T01:04:28.356Z,4.30
2017-11-29T01:06:56.380Z,4.30
2017-11-29T01:09:25.167Z,4.40
2017-11-29T01:11:53.244Z,4.30
2017-11-29T01:14:21.272Z,4.30
2017-11-29T01:16:49.304Z,4.30
2017-11-29T01:19:17.334Z,4.30
2017-11-29T01:21:46.161Z,4.30
2017-11-29T01:24:14.188Z,4.30
2017-11-29T01:26:42.200Z,4.30
2017-11-29T01:29:10.206Z,4.30
2017-11-29T01:31:38.193Z,4.30
2017-11-29T01:34:06.178Z,4.20
2017-11-29T01:36:34.193Z,4.20
2017-11-29T01:39:02.176Z,4.20
2017-11-29T01:41:30.166Z,4.20
2017-11-29T01:43:58.958Z,4.20
2017-11-29T01:46:26.954Z,4.20
2017-11-29T01:48:55.707Z,4.30
2017-11-29T01:51:23.729Z,4.20
2017-11-29T01:53:52.532Z,4.20
2017-11-29T01:56:20.495Z,4.20
2017-11-29T01:58:48.514Z,4.20
2017-11-29T02:01:16.506Z,4.10
2017-11-29T02:03:44.491Z,4.10
2017-11-29T02:06:24.514Z,4.10
2017-11-29T02:08:52.499Z,4.10
2017-11-29T02:11:20.486Z,4.10
2017-11-29T02:13:49.282Z,4.20
2017-11-29T02:16:17.260Z,4.10
2017-11-29T02:18:45.251Z,4.10
2017-11-29T02:21:13.257Z,4.10
2017-11-29T02:23:41.250Z,4.10
2017-11-29T02:26:09.243Z,4.10
2017-11-29T02:28:37.269Z,4.20
2017-11-29T02:31:05.274Z,4.20
2017-11-29T02:33:34.026Z,4.10
2017-11-29T02:36:02.054Z,4.10
2017-11-29T02:38:30.050Z,4.00
2017-11-29T02:43:57.248Z,3.90
2017-11-29T02:46:26.063Z,3.90
2017-11-29T02:48:54.086Z,3.80
2017-11-29T02:51:22.138Z,3.80
2017-11-29T02:53:50.167Z,3.80
2017-11-29T02:56:18.158Z,3.80
2017-11-29T02:58:47.659Z,3.60
2017-11-29T03:01:15.707Z,3.60
2017-11-29T03:03:43.673Z,3.60
2017-11-29T03:06:11.657Z,3.60
2017-11-29T03:08:39.917Z,3.60
2017-11-29T03:11:07.905Z,3.60
2017-11-29T03:13:36.661Z,3.50
2017-11-29T03:16:05.221Z,3.50
2017-11-29T03:18:33.966Z,3.50
2017-11-29T03:21:01.953Z,3.50
2017-11-29T03:23:30.057Z,3.50
2017-11-29T03:25:58.050Z,3.50
2017-11-29T03:28:26.038Z,3.50
2017-11-29T03:30:54.926Z,3.60
2017-11-29T03:33:23.695Z,3.60
2017-11-29T03:35:51.693Z,3.60
2017-11-29T03:38:19.690Z,3.60
2017-11-29T03:40:47.685Z,3.70
2017-11-29T03:43:16.437Z,3.60
2017-11-29T03:45:44.450Z,3.60
2017-11-29T03:48:12.439Z,3.60
2017-11-29T03:50:40.426Z,3.50
2017-11-29T03:53:08.443Z,3.60
2017-11-29T03:55:36.425Z,3.50
2017-11-29T03:58:04.413Z,3.50
2017-11-29T04:00:32.453Z,3.60
2017-11-29T04:03:00.447Z,3.50
2017-11-29T04:05:29.218Z,3.40
2017-11-29T04:07:57.259Z,3.30
2017-11-29T04:10:25.237Z,3.20
2017-11-29T04:12:53.247Z,3.20
2017-11-29T04:15:21.254Z,3.20
2017-11-29T04:17:49.246Z,3.20
2017-11-29T04:20:17.229Z,3.20
2017-11-29T04:22:45.241Z,3.20
2017-11-29T04:25:13.231Z,3.30
2017-11-29T04:27:41.218Z,3.40
2017-11-29T04:30:09.241Z,3.50
2017-11-29T04:32:38.749Z,3.50
2017-11-29T04:35:06.729Z,3.50
2017-11-29T04:37:34.828Z,3.60
2017-11-29T04:40:02.811Z,3.60
2017-11-29T04:42:30.794Z,3.60
2017-11-29T04:44:58.819Z,3.60
2017-11-29T04:47:27.569Z,3.70
2017-11-29T04:49:55.563Z,3.60
2017-11-29T04:52:23.619Z,3.60
2017-11-29T04:54:51.612Z,3.60
2017-11-29T04:57:19.594Z,3.60
2017-11-29T04:59:47.609Z,3.60
2017-11-29T05:02:15.603Z,3.50
2017-11-29T05:04:44.350Z,3.20
2017-11-29T05:07:12.378Z,3.20
2017-11-29T05:09:40.366Z,3.30
2017-11-29T05:12:09.113Z,3.20
2017-11-29T05:14:37.162Z,3.10
2017-11-29T05:17:05.909Z,3.10
2017-11-29T05:19:33.902Z,3.00
2017-11-29T05:22:01.930Z,3.00
2017-11-29T05:24:30.677Z,2.90
2017-11-29T05:26:58.670Z,2.80
2017-11-29T05:29:26.710Z,2.90
2017-11-29T05:31:54.718Z,2.80
2017-11-29T05:34:22.713Z,2.90
2017-11-29T05:36:50.717Z,2.80
2017-11-29T05:39:18.711Z,2.80
2017-11-29T05:41:47.466Z,2.70
2017-11-29T05:44:15.486Z,2.70
2017-11-29T05:46:43.478Z,2.80
2017-11-29T05:49:12.237Z,2.80
2017-11-29T05:51:40.258Z,2.80
2017-11-29T05:54:09.013Z,3.00
2017-11-29T05:56:37.003Z,2.90
2017-11-29T05:59:05.005Z,3.00
2017-11-29T06:01:32.998Z,3.10
2017-11-29T06:04:00.985Z,3.20
2017-11-29T06:06:29.771Z,3.30
2017-11-29T06:08:59.268Z,3.20
2017-11-29T06:11:27.266Z,3.20
2017-11-29T06:13:55.306Z,3.20
2017-11-29T06:16:23.289Z,3.20
2017-11-29T06:18:51.313Z,3.10
2017-11-29T06:21:19.298Z,3.20
2017-11-29T06:23:47.298Z,3.20
2017-11-29T06:26:16.049Z,3.10
2017-11-29T06:28:44.060Z,3.00
2017-11-29T06:31:12.069Z,3.10
2017-11-29T06:33:40.086Z,3.20
2017-11-29T06:36:08.110Z,3.20
2017-11-29T06:38:36.107Z,3.00
2017-11-29T06:41:04.864Z,2.90
2017-11-29T06:43:32.883Z,2.80
2017-11-29T06:46:00.866Z,2.90
2017-11-29T06:48:28.862Z,2.90
2017-11-29T06:50:57.660Z,3.00
2017-11-29T06:53:25.644Z,3.00
2017-11-29T06:55:54.411Z,3.10
2017-11-29T06:58:22.450Z,3.10
2017-11-29T07:00:50.443Z,3.10
2017-11-29T07:03:18.423Z,3.00
2017-11-29T07:05:46.450Z,3.00
2017-11-29T07:08:14.433Z,3.00
2017-11-29T07:10:42.417Z,3.10
2017-11-29T07:13:10.466Z,3.10
2017-11-29T07:15:38.453Z,3.00
2017-11-29T07:18:06.443Z,3.10
2017-11-29T07:20:34.462Z,3.00
2017-11-29T07:23:02.453Z,3.00
2017-11-29T07:25:31.209Z,3.10
2017-11-29T07:27:59.317Z,3.00
2017-11-29T07:30:27.305Z,3.10
2017-11-29T07:32:55.293Z,3.20
2017-11-29T07:35:23.325Z,3.20
2017-11-29T07:37:52.146Z,3.20
2017-11-29T07:40:20.126Z,3.20
2017-11-29T07:42:48.155Z,3.10
2017-11-29T07:45:16.908Z,3.10
2017-11-29T07:47:44.898Z,3.00
2017-11-29T07:50:12.923Z,3.10
2017-11-29T07:52:41.669Z,3.20
2017-11-29T07:55:10.473Z,3.30
2017-11-29T07:57:38.478Z,3.20
2017-11-29T08:00:06.485Z,3.30
2017-11-29T08:02:34.470Z,3.30
2017-11-29T08:05:03.251Z,3.30
2017-11-29T08:07:31.247Z,3.30
2017-11-29T08:09:59.229Z,3.30
2017-11-29T08:12:27.253Z,3.40
2017-11-29T08:14:55.243Z,3.40
2017-11-29T08:17:23.227Z,3.50
2017-11-29T08:19:51.258Z,3.50
2017-11-29T08:22:19.249Z,3.50
2017-11-29T08:24:48.004Z,3.60
2017-11-29T08:27:16.029Z,3.60
2017-11-29T08:29:44.014Z,3.60
2017-11-29T08:32:12.774Z,3.60
2017-11-29T08:34:40.798Z,3.50
2017-11-29T08:37:09.555Z,3.40
2017-11-29T08:39:37.542Z,3.40
2017-11-29T08:42:05.662Z,3.50
2017-11-29T08:44:33.645Z,3.40
2017-11-29T08:47:02.405Z,3.40
2017-11-29T08:49:30.422Z,3.40
2017-11-29T08:51:58.421Z,3.50
2017-11-29T08:54:27.169Z,3.60
2017-11-29T08:56:55.197Z,3.50
2017-11-29T08:59:23.956Z,3.60
2017-11-29T09:01:51.958Z,3.60
2017-11-29T09:04:19.969Z,3.70
2017-11-29T09:06:48.725Z,3.70
2017-11-29T09:09:16.709Z,3.70
2017-11-29T09:11:44.729Z,3.70
2017-11-29T09:14:13.493Z,3.80
2017-11-29T09:16:41.488Z,3.80
2017-11-29T09:19:09.514Z,3.80
2017-11-29T09:21:37.510Z,3.90
2017-11-29T09:24:05.494Z,4.00
2017-11-29T09:26:33.631Z,4.10
2017-11-29T09:29:01.618Z,4.10
2017-11-29T09:31:29.606Z,4.30
2017-11-29T09:33:58.404Z,4.40
2017-11-29T09:36:27.168Z,4.40
2017-11-29T09:38:55.158Z,4.40
2017-11-29T09:41:23.201Z,4.40
2017-11-29T09:43:51.190Z,4.60
2017-11-29T09:46:19.181Z,4.70
2017-11-29T09:48:47.202Z,4.80
2017-11-29T09:51:15.189Z,4.90
2017-11-29T09:53:43.191Z,5.10
2017-11-29T09:56:12.021Z,5.40
2017-11-29T09:58:40.018Z,5.30
2017-11-29T10:01:08.002Z,5.70
2017-11-29T10:03:36.037Z,5.90
2017-11-29T10:06:04.795Z,5.90
2017-11-29T10:08:32.819Z,5.90
2017-11-29T10:11:00.830Z,5.90
2017-11-29T10:13:28.828Z,6.00
2017-11-29T10:15:56.822Z,6.20
2017-11-29T10:18:25.253Z,6.40
2017-11-29T10:20:53.246Z,6.40
2017-11-29T10:23:22.001Z,6.20
2017-11-29T10:25:50.042Z,6.10
2017-11-29T10:28:18.798Z,6.20
2017-11-29T10:30:46.786Z,6.10
2017-11-29T10:33:14.821Z,6.20
2017-11-29T10:35:42.830Z,6.30
2017-11-29T10:38:10.809Z,6.40
2017-11-29T10:40:38.828Z,6.40
2017-11-29T10:43:06.833Z,6.30
2017-11-29T10:45:35.577Z,6.60
2017-11-29T10:48:03.701Z,6.60
2017-11-29T10:50:31.690Z,6.60
2017-11-29T10:53:00.449Z,6.30
2017-11-29T10:55:28.512Z,6.30
2017-11-29T10:57:56.509Z,6.30
2017-11-29T11:00:24.494Z,6.30
2017-11-29T11:02:52.514Z,6.20
2017-11-29T11:05:20.543Z,6.20
2017-11-29T11:07:48.533Z,6.10
2017-11-29T11:10:16.545Z,6.10
2017-11-29T11:12:44.538Z,6.00
2017-11-29T11:15:12.538Z,5.90
2017-11-29T11:17:41.425Z,5.90
2017-11-29T11:20:09.409Z,5.90
2017-11-29T11:22:37.547Z,6.10
2017-11-29T11:25:05.573Z,6.30
2017-11-29T11:27:33.563Z,6.60
2017-11-29T11:30:01.550Z,6.70
2017-11-29T11:32:29.658Z,6.70
2017-11-29T11:34:57.649Z,6.50
2017-11-29T11:37:25.644Z,6.30
2017-11-29T11:39:53.666Z,6.30
2017-11-29T11:42:21.649Z,6.10
2017-11-29T11:44:49.633Z,6.00
2017-11-29T11:47:17.652Z,6.10
2017-11-29T11:49:45.633Z,6.10
2017-11-29T11:52:13.675Z,6.30
2017-11-29T11:54:41.694Z,6.80
2017-11-29T11:57:10.464Z,7.90
2017-11-29T11:59:38.454Z,7.80
2017-11-29T12:02:06.487Z,8.00
2017-11-29T12:04:34.465Z,8.20
2017-11-29T12:07:02.462Z,8.30
2017-11-29T12:09:30.482Z,8.50
2017-11-29T12:11:59.973Z,8.90
2017-11-29T12:14:27.957Z,8.90
2017-11-29T12:16:55.965Z,8.70
2017-11-29T12:19:23.955Z,8.30
2017-11-29T12:21:51.958Z,8.00
2017-11-29T12:24:19.978Z,7.70
2017-11-29T12:26:47.966Z,7.60
2017-11-29T12:29:15.961Z,7.60
2017-11-29T12:31:43.973Z,7.70
2017-11-29T12:34:12.721Z,7.30
2017-11-29T12:36:40.720Z,7.30
2017-11-29T12:39:08.726Z,7.20
2017-11-29T12:41:36.714Z,7.10
2017-11-29T12:44:04.701Z,6.90
2017-11-29T12:46:33.505Z,6.70
2017-11-29T12:49:28.853Z,6.60
2017-11-29T12:51:56.869Z,6.50
2017-11-29T12:54:24.873Z,6.40
2017-11-29T12:56:52.872Z,6.40
2017-11-29T12:59:20.890Z,6.40
2017-11-29T13:01:48.873Z,6.40
2017-11-29T13:04:16.859Z,6.20
2017-11-29T13:06:44.897Z,6.20
2017-11-29T13:09:12.889Z,6.20
2017-11-29T13:11:40.869Z,6.20
2017-11-29T13:14:08.889Z,6.10
2017-11-29T13:16:36.874Z,6.10
2017-11-29T13:19:04.862Z,6.20
2017-11-29T13:21:32.885Z,6.20
2017-11-29T13:24:00.868Z,6.10
2017-11-29T13:26:28.853Z,6.10
2017-11-29T13:28:56.913Z,6.20
2017-11-29T13:31:24.886Z,6.10
2017-11-29T13:33:52.873Z,6.10
2017-11-29T13:36:20.965Z,6.00
2017-11-29T13:38:48.961Z,6.00
2017-11-29T13:41:16.938Z,6.00
2017-11-29T13:43:44.950Z,6.20
2017-11-29T13:46:13.696Z,6.10
2017-11-29T13:48:41.681Z,6.00
2017-11-29T13:51:09.710Z,6.10
2017-11-29T13:53:37.706Z,6.10
2017-11-29T13:56:06.470Z,6.00
2017-11-29T13:58:34.502Z,6.00
2017-11-29T14:01:03.201Z,6.10
2017-11-29T14:03:31.180Z,6.00
2017-11-29T14:05:59.239Z,6.00
2017-11-29T14:08:27.213Z,6.00
2017-11-29T14:10:55.210Z,5.90
2017-11-29T14:13:24.110Z,5.90
2017-11-29T14:15:52.869Z,5.90
2017-11-29T14:18:20.858Z,5.80
2017-11-29T14:20:48.894Z,5.80
2017-11-29T14:23:17.625Z,5.60
2017-11-29T14:25:45.606Z,5.60
2017-11-29T14:28:13.613Z,5.50
2017-11-29T14:30:41.601Z,5.50
2017-11-29T14:33:09.585Z,5.40
2017-11-29T14:35:37.594Z,5.40
2017-11-29T14:38:05.610Z,5.40
2017-11-29T14:40:33.590Z,5.40
2017-11-29T14:43:01.721Z,5.30
2017-11-29T14:45:29.707Z,5.40
2017-11-29T14:47:57.690Z,5.30
2017-11-29T14:50:25.895Z,5.30
2017-11-29T14:52:54.650Z,5.30
2017-11-29T14:55:22.649Z,5.20
2017-11-29T14:57:50.645Z,5.20
2017-11-29T15:00:18.630Z,5.20
2017-11-29T15:02:46.613Z,5.20
2017-11-29T15:05:14.622Z,5.20
2017-11-29T15:07:42.601Z,5.20
2017-11-29T15:10:10.585Z,5.20
2017-11-29T15:12:39.054Z,5.20
2017-11-29T15:15:07.034Z,5.30
2017-11-29T15:17:35.040Z,5.20
2017-11-29T15:20:03.820Z,5.20
2017-11-29T15:22:31.803Z,5.20
2017-11-29T15:25:00.549Z,5.20
2017-11-29T15:27:28.567Z,5.10
2017-11-29T15:29:56.561Z,5.20
2017-11-29T15:32:24.557Z,5.20
2017-11-29T15:34:53.353Z,5.20
2017-11-29T15:37:22.104Z,5.20
2017-11-29T15:39:50.082Z,5.20
2017-11-29T15:42:18.091Z,5.20
2017-11-29T15:44:46.069Z,5.30
2017-11-29T15:47:14.050Z,5.30
2017-11-29T15:49:42.258Z,5.30
2017-11-29T15:52:10.237Z,5.30
2017-11-29T15:54:38.218Z,5.30
2017-11-29T15:57:06.247Z,5.20
2017-11-29T15:59:34.230Z,5.30
2017-11-29T16:02:02.221Z,5.30
2017-11-29T16:04:30.246Z,5.20
2017-11-29T16:06:58.228Z,5.20
2017-11-29T16:09:26.306Z,5.20
2017-11-29T16:11:54.348Z,5.20
2017-11-29T16:14:22.345Z,5.10
2017-11-29T16:16:50.346Z,5.00
2017-11-29T16:19:18.366Z,5.00
2017-11-29T16:21:47.112Z,4.90
2017-11-29T16:24:15.823Z,4.90
2017-11-29T16:26:43.829Z,4.80
2017-11-29T16:29:11.854Z,4.80
2017-11-29T16:31:39.838Z,4.80
2017-11-29T16:34:07.850Z,4.80
2017-11-29T16:36:35.834Z,4.80
2017-11-29T16:39:03.833Z,4.80
2017-11-29T16:41:31.856Z,4.80
2017-11-29T16:44:00.602Z,4.70
2017-11-29T16:46:28.589Z,4.60
2017-11-29T16:48:56.610Z,4.60
2017-11-29T16:51:25.374Z,4.70
2017-11-29T16:53:53.406Z,4.60
2017-11-29T16:56:22.194Z,4.60
2017-11-29T16:58:50.943Z,4.60
2017-11-29T17:01:18.922Z,4.60
2017-11-29T17:03:46.933Z,4.60
2017-11-29T17:06:14.930Z,4.70
2017-11-29T17:08:43.842Z,4.70
2017-11-29T17:11:11.887Z,4.80
2017-11-29T17:13:39.867Z,4.70
2017-11-29T17:16:07.846Z,4.70
2017-11-29T17:18:35.882Z,4.70
2017-11-29T17:21:04.625Z,4.70
2017-11-29T17:23:32.611Z,4.70
2017-11-29T17:26:00.743Z,4.70
2017-11-29T17:28:28.717Z,4.60
2017-11-29T17:30:56.705Z,4.60
2017-11-29T17:33:25.894Z,4.60
2017-11-29T17:35:53.874Z,4.60
2017-11-29T17:38:21.868Z,4.60
2017-11-29T17:40:49.901Z,4.70
2017-11-29T17:43:17.894Z,4.70
2017-11-29T17:45:45.898Z,4.80
2017-11-29T17:48:14.090Z,4.70
2017-11-29T17:50:42.082Z,4.60
2017-11-29T17:53:11.565Z,4.90
2017-11-29T17:55:39.574Z,4.90
2017-11-29T17:58:07.576Z,5.00
2017-11-29T18:00:35.562Z,4.80
2017-11-29T18:03:04.338Z,4.40
2017-11-29T18:05:32.324Z,4.40
2017-11-29T18:08:00.297Z,4.30
2017-11-29T18:10:28.334Z,4.20
2017-11-29T18:12:56.326Z,4.20
2017-11-29T18:15:24.305Z,4.20
2017-11-29T18:17:52.330Z,4.30
2017-11-29T18:20:20.313Z,4.30
2017-11-29T18:22:48.293Z,4.20
2017-11-29T18:25:16.309Z,4.30
2017-11-29T18:27:45.065Z,4.30
2017-11-29T18:30:13.049Z,4.30
2017-11-29T18:32:41.065Z,4.30
2017-11-29T18:35:09.050Z,4.30
2017-11-29T18:37:37.802Z,4.30
2017-11-29T18:40:05.820Z,4.20
2017-11-29T18:42:33.793Z,4.20
2017-11-29T18:45:01.780Z,4.20
2017-11-29T18:47:29.797Z,4.20
2017-11-29T18:49:58.547Z,4.00
2017-11-29T18:52:26.545Z,4.00
2017-11-29T18:54:54.561Z,4.00
2017-11-29T18:57:22.573Z,4.10
2017-11-29T18:59:50.550Z,4.10
2017-11-29T19:02:18.577Z,4.10
2017-11-29T19:04:46.561Z,4.10
2017-11-29T19:07:14.546Z,4.00
2017-11-29T19:09:42.560Z,3.90
2017-11-29T19:12:11.306Z,3.80
2017-11-29T19:14:39.288Z,3.80
2017-11-29T19:17:07.305Z,3.90
2017-11-29T19:19:36.062Z,3.90
2017-11-29T19:22:04.042Z,3.90
2017-11-29T19:24:32.268Z,3.90
2017-11-29T19:27:00.262Z,3.90
2017-11-29T19:29:29.017Z,3.90
2017-11-29T19:31:57.025Z,3.90
2017-11-29T19:34:25.025Z,3.90
2017-11-29T19:36:53.787Z,3.90
2017-11-29T19:39:22.215Z,3.90
2017-11-29T19:41:50.197Z,3.80
2017-11-29T19:44:18.181Z,3.60
2017-11-29T19:46:46.182Z,3.80
2017-11-29T19:49:14.160Z,3.90
2017-11-29T19:51:42.149Z,3.90
2017-11-29T19:54:10.197Z,3.90
2017-11-29T19:56:38.195Z,3.80
2017-11-29T19:59:06.186Z,3.90
2017-11-29T20:01:34.993Z,3.80
2017-11-29T20:04:03.750Z,3.70
2017-11-29T20:06:31.753Z,3.70
2017-11-29T20:09:00.961Z,3.80
2017-11-29T20:11:28.949Z,3.70
2017-11-29T20:13:56.989Z,3.80
2017-11-29T20:16:25.001Z,3.80
2017-11-29T20:18:53.009Z,3.90
2017-11-29T20:21:21.779Z,3.70
2017-11-29T20:23:49.773Z,3.70
2017-11-29T20:26:17.758Z,3.70
2017-11-29T20:28:45.746Z,3.70
2017-11-29T20:31:13.786Z,3.60
2017-11-29T20:33:41.751Z,3.70
2017-11-29T20:36:09.748Z,3.70
2017-11-29T20:38:37.838Z,3.70
2017-11-29T20:41:05.865Z,3.70
2017-11-29T20:43:34.642Z,4.00
2017-11-29T20:46:02.656Z,4.00
2017-11-29T20:48:31.424Z,4.00
2017-11-29T20:50:59.429Z,3.90
2017-11-29T20:53:27.443Z,4.00
2017-11-29T20:55:55.450Z,3.80
2017-11-29T20:58:23.437Z,3.70
2017-11-29T21:00:51.463Z,3.70
2017-11-29T21:03:19.470Z,3.60
2017-11-29T21:05:47.727Z,3.50
2017-11-29T21:08:15.745Z,3.40
2017-11-29T21:10:43.746Z,3.50
2017-11-29T21:13:11.748Z,3.50
2017-11-29T21:15:39.766Z,3.50
2017-11-29T21:18:07.767Z,3.60
2017-11-29T21:20:35.877Z,3.60
2017-11-29T21:23:03.854Z,3.60
2017-11-29T21:25:31.882Z,3.60
2017-11-29T21:27:59.878Z,3.60
2017-11-29T21:30:27.921Z,3.60
2017-11-29T21:32:55.925Z,3.50
2017-11-29T21:35:25.430Z,3.30
2017-11-29T21:37:53.460Z,3.30
2017-11-29T21:40:22.229Z,3.40
2017-11-29T21:42:50.250Z,3.40
2017-11-29T21:45:19.338Z,3.40
2017-11-29T21:47:48.123Z,3.30
2017-11-29T21:50:16.117Z,3.20
2017-11-29T21:52:44.136Z,3.30
2017-11-29T21:55:12.147Z,3.20
2017-11-29T21:57:40.151Z,3.20
2017-11-29T22:00:08.259Z,3.20
2017-11-29T22:02:37.013Z,3.10
2017-11-29T22:05:05.000Z,3.10
2017-11-29T22:07:33.005Z,3.10
2017-11-29T22:10:00.994Z,3.00
2017-11-29T22:12:28.977Z,3.00
2017-11-29T22:14:57.022Z,2.90
2017-11-29T22:17:25.014Z,2.90
2017-11-29T22:19:52.999Z,2.80
2017-11-29T22:22:21.027Z,2.80
2017-11-29T22:24:49.782Z,2.80
2017-11-29T22:27:17.770Z,2.80
2017-11-29T22:29:45.799Z,2.80
2017-11-29T22:32:14.549Z,2.70
2017-11-29T22:34:42.537Z,2.70
2017-11-29T22:37:10.962Z,2.70
2017-11-29T22:39:39.139Z,2.80
2017-11-29T22:42:07.908Z,2.70
2017-11-29T22:44:35.930Z,2.60
2017-11-29T22:47:04.687Z,2.50
2017-11-29T22:49:32.676Z,2.50
2017-11-29T22:52:00.789Z,2.50
2017-11-29T22:54:28.804Z,2.40
2017-11-29T22:56:56.789Z,2.40
2017-11-29T22:59:24.818Z,2.40
2017-11-29T23:01:52.801Z,2.40
2017-11-29T23:04:20.796Z,2.40
2017-11-29T23:06:48.981Z,2.30
2017-11-29T23:09:16.982Z,2.20
2017-11-29T23:11:45.728Z,2.20
2017-11-29T23:14:13.760Z,2.20
2017-11-29T23:16:42.513Z,2.20
2017-11-29T23:19:10.493Z,2.10
2017-11-29T23:21:38.558Z,2.20
2017-11-29T23:24:06.557Z,2.10
2017-11-29T23:26:34.553Z,2.20
2017-11-29T23:29:02.569Z,2.20
2017-11-29T23:31:30.575Z,2.20
2017-11-29T23:33:59.322Z,2.10
2017-11-29T23:36:27.361Z,2.10
2017-11-29T23:38:55.353Z,2.10
2017-11-29T23:41:23.349Z,2.00
2017-11-29T23:43:51.369Z,1.90
2017-11-29T23:46:19.366Z,1.90
2017-11-29T23:48:48.122Z,1.90
2017-11-29T23:51:16.154Z,1.80
2017-11-29T23:53:44.914Z,1.80
2017-11-29T23:56:12.911Z,1.80
2017-11-29T23:58:40.947Z,1.90
